Time;durP1;ratioP1;P1;durP2;ratioP2;P2;SDS_P1;SDS_P2;PMS_P1;PMS_P2;Temp;Humidity;BMP_temperature;BMP_pressure;BME280_temperature;BME280_humidity;BME280_pressure;Samples;Min_cycle;Max_cycle;Signal;HPM_P1;HPM_P2
2023/09/17 00:01:40;;;;;;;5.10;3.53;;;20.60;99.90;;;21.04;100.00;100654.44;5180653;28;20037;-69
2023/09/17 00:04:12;;;;;;;5.55;3.45;;;20.60;99.90;;;21.04;100.00;100650.94;5176302;28;20042;-69
2023/09/17 00:06:45;;;;;;;4.18;2.95;;;20.50;99.90;;;21.03;100.00;100658.00;5183174;28;20057;-69
2023/09/17 00:09:17;;;;;;;4.20;2.88;;;20.50;99.90;;;21.05;100.00;100668.56;5181255;28;20538;-70
2023/09/17 00:11:51;;;;;;;4.60;3.10;;;20.60;99.90;;;21.05;100.00;100657.97;5179760;28;20038;-69
2023/09/17 00:14:23;;;;;;;5.00;3.40;;;20.60;99.90;;;21.06;100.00;100654.44;5180165;28;20445;-69
2023/09/17 00:16:55;;;;;;;4.60;2.90;;;20.60;99.90;;;21.07;100.00;100662.38;5194771;28;20352;-70
2023/09/17 00:19:28;;;;;;;4.57;3.03;;;20.60;99.90;;;21.11;100.00;100657.91;5184347;28;20140;-69
2023/09/17 00:22:00;;;;;;;4.25;2.72;;;20.60;99.90;;;21.12;100.00;100659.66;5183020;28;20038;-69
2023/09/17 00:24:33;;;;;;;4.78;2.95;;;20.60;99.90;;;21.12;100.00;100680.88;5180698;28;20037;-68
2023/09/17 00:27:07;;;;;;;6.60;3.80;;;20.60;99.90;;;21.12;100.00;100691.47;5177591;28;20454;-70
2023/09/17 00:29:39;;;;;;;7.28;3.67;;;20.70;99.90;;;21.16;100.00;100674.66;5185638;28;20459;-69
2023/09/17 00:32:11;;;;;;;5.93;3.55;;;20.70;99.90;;;21.21;100.00;100683.44;5199256;28;20053;-69
2023/09/17 00:34:44;;;;;;;6.50;4.20;;;20.70;99.90;;;21.25;100.00;100706.34;5194402;28;20522;-68
2023/09/17 00:37:17;;;;;;;5.70;3.83;;;20.80;99.90;;;21.28;100.00;100709.03;5179906;28;20061;-70
2023/09/17 00:39:50;;;;;;;7.05;4.15;;;20.80;99.90;;;21.30;100.00;100693.09;5185353;28;20503;-70
2023/09/17 00:42:24;;;;;;;7.28;4.40;;;20.80;99.90;;;21.33;100.00;100680.69;5178908;28;20034;-71
2023/09/17 00:44:56;;;;;;;6.88;4.18;;;20.90;99.90;;;21.39;100.00;100679.75;5180405;28;20503;-69
2023/09/17 00:47:28;;;;;;;7.80;5.05;;;20.90;99.90;;;21.40;100.00;100665.59;5165830;28;20096;-68
2023/09/17 00:50:02;;;;;;;9.00;5.18;;;20.90;99.90;;;21.39;100.00;100654.13;5188169;28;20045;-68
2023/09/17 00:52:34;;;;;;;7.97;5.00;;;20.90;99.90;;;21.42;100.00;100673.53;5182493;28;20039;-70
2023/09/17 00:55:09;;;;;;;7.97;5.10;;;20.90;99.90;;;21.43;100.00;100680.59;5181431;28;20570;-71
2023/09/17 00:57:45;;;;;;;7.28;4.60;;;20.90;99.90;;;21.39;100.00;100675.31;5179805;28;20092;-70
2023/09/17 01:00:20;;;;;;;9.60;5.95;;;21.00;99.90;;;21.36;100.00;100672.69;5180159;28;20064;-69
2023/09/17 01:02:53;;;;;;;9.15;5.60;;;20.90;99.90;;;21.29;100.00;100673.66;5197939;28;20056;-69
2023/09/17 01:05:37;;;;;;;9.98;5.68;;;20.90;99.90;;;21.27;100.00;100667.47;5178930;28;20050;-70
2023/09/17 01:08:10;;;;;;;8.07;4.95;;;20.90;99.90;;;21.28;100.00;100656.00;5179816;28;20052;-69
2023/09/17 01:10:43;;;;;;;8.13;4.75;;;20.90;99.90;;;21.30;100.00;100648.91;5185550;28;20060;-70
2023/09/17 01:13:18;;;;;;;7.40;4.50;;;20.90;99.90;;;21.33;100.00;100643.59;5177847;28;20049;-69
2023/09/17 01:15:51;;;;;;;7.53;4.85;;;20.90;99.90;;;21.33;100.00;100642.72;5169368;28;20103;-69
2023/09/17 01:18:27;;;;;;;8.25;5.20;;;20.90;99.90;;;21.32;100.00;100644.47;5168167;28;20050;-68
2023/09/17 01:21:04;;;;;;;7.63;4.53;;;20.90;99.90;;;21.31;100.00;100634.75;5182913;28;20054;-69
2023/09/17 01:23:46;;;;;;;6.57;3.97;;;20.90;99.90;;;21.32;100.00;100631.22;5179801;28;20041;-68
2023/09/17 01:26:26;;;;;;;6.82;4.38;;;20.90;99.90;;;21.33;100.00;100635.63;5184641;28;20081;-70
2023/09/17 01:29:00;;;;;;;6.80;4.32;;;20.90;99.90;;;21.33;100.00;100638.28;5169442;28;20056;-69
2023/09/17 01:31:34;;;;;;;6.72;4.10;;;20.90;99.90;;;21.34;100.00;100634.72;5189164;28;20038;-69
2023/09/17 01:34:06;;;;;;;6.85;4.50;;;20.90;99.90;;;21.33;100.00;100634.75;5198943;28;20052;-71
2023/09/17 01:36:42;;;;;;;7.88;4.55;;;20.90;99.90;;;21.32;100.00;100636.53;5184934;28;20053;-69
2023/09/17 01:39:22;;;;;;;7.53;4.47;;;20.90;99.90;;;21.34;100.00;100629.44;5183727;28;20518;-70
2023/09/17 01:41:55;;;;;;;6.35;4.00;;;20.90;99.90;;;21.33;100.00;100632.97;5195540;28;20045;-69
2023/09/17 01:44:31;;;;;;;5.40;4.10;;;20.90;99.90;;;21.36;100.00;100632.06;5184320;28;20133;-69
2023/09/17 01:47:05;;;;;;;5.38;4.05;;;20.90;99.90;;;21.34;100.00;100642.69;5199686;28;20038;-69
2023/09/17 01:49:39;;;;;;;5.72;3.92;;;20.90;99.90;;;21.33;100.00;100659.50;5183401;28;20053;-69
2023/09/17 01:52:12;;;;;;;;;;;20.80;99.90;;;21.34;100.00;100647.09;5184743;28;20078;-69
2023/09/17 01:54:44;;;;;;;5.65;3.70;;;20.90;99.90;;;21.35;100.00;100638.25;5182792;28;19928;-72
2023/09/17 01:57:18;;;;;;;5.95;3.90;;;20.90;99.90;;;21.34;100.00;100639.16;5183220;28;20037;-69
2023/09/17 01:59:52;;;;;;;7.00;4.20;;;20.90;99.90;;;21.33;100.00;100648.88;5203860;28;20042;-69
2023/09/17 02:02:24;;;;;;;8.27;5.00;;;20.90;99.90;;;21.30;100.00;100638.31;5183885;28;20049;-69
2023/09/17 02:04:57;;;;;;;5.78;3.75;;;20.90;99.90;;;21.29;100.00;100630.38;5186688;28;20393;-70
2023/09/17 02:07:30;;;;;;;7.22;4.78;;;20.80;99.90;;;21.27;100.00;100638.31;5183465;28;20065;-69
2023/09/17 02:10:02;;;;;;;5.97;4.38;;;20.80;99.90;;;21.27;100.00;100633.00;5185570;28;20048;-69
2023/09/17 02:12:34;;;;;;;6.25;4.22;;;20.80;99.90;;;21.25;100.00;100637.44;5183218;28;20053;-69
2023/09/17 02:15:10;;;;;;;6.00;3.95;;;20.80;99.90;;;21.25;100.00;100634.78;5186366;28;20045;-70
2023/09/17 02:17:42;;;;;;;5.45;3.80;;;20.70;99.90;;;21.24;100.00;100638.34;5203377;28;20052;-69
2023/09/17 02:20:15;;;;;;;5.40;3.80;;;20.80;99.90;;;21.23;100.00;100644.53;5201091;28;20050;-68
2023/09/17 02:22:47;;;;;;;6.78;4.05;;;20.80;99.90;;;21.23;100.00;100636.59;5184220;28;20038;-69
2023/09/17 02:25:20;;;;;;;6.07;4.10;;;20.80;99.90;;;21.22;100.00;100633.97;5183718;28;20046;-69
2023/09/17 02:27:52;;;;;;;7.53;4.95;;;20.80;99.90;;;21.18;100.00;100635.75;5184405;28;20038;-68
2023/09/17 02:30:25;;;;;;;7.18;4.57;;;20.70;99.90;;;21.14;100.00;100620.81;5198639;28;20624;-69
2023/09/17 02:32:58;;;;;;;7.15;5.15;;;20.70;99.90;;;21.13;100.00;100625.22;5167349;28;20104;-69
2023/09/17 02:35:30;;;;;;;7.47;4.35;;;20.70;99.90;;;21.14;100.00;100626.09;5184372;28;20048;-69
2023/09/17 02:38:03;;;;;;;8.50;5.15;;;20.70;99.90;;;21.12;100.00;100625.22;5189360;28;20057;-69
2023/09/17 02:40:35;;;;;;;7.10;4.60;;;20.70;99.90;;;21.12;100.00;100617.25;5183383;28;20054;-70
2023/09/17 02:43:09;;;;;;;7.47;4.78;;;20.70;99.90;;;21.10;100.00;100619.06;5180261;28;20522;-70
2023/09/17 02:45:43;;;;;;;8.65;4.68;;;20.70;99.90;;;21.08;100.00;100615.56;5167029;28;20661;-70
2023/09/17 02:48:15;;;;;;;;;;;20.70;99.90;;;21.09;100.00;100618.19;5184763;28;20524;-68
2023/09/17 02:50:48;;;;;;;7.00;4.50;;;20.70;99.90;;;21.09;100.00;100612.88;5185107;28;19955;-69
2023/09/17 02:53:20;;;;;;;5.70;4.22;;;20.70;99.90;;;21.10;100.00;100611.13;5183278;28;20056;-68
2023/09/17 02:55:52;;;;;;;6.60;3.95;;;20.70;99.90;;;21.09;100.00;100615.53;5184372;28;20053;-69
2023/09/17 02:58:24;;;;;;;6.68;4.03;;;20.70;99.90;;;21.10;100.00;100612.00;5184456;28;20046;-69
2023/09/17 03:00:58;;;;;;;6.47;4.00;;;20.70;99.90;;;21.09;100.00;100606.72;5185136;28;20445;-68
2023/09/17 03:03:30;;;;;;;6.60;4.07;;;20.70;99.90;;;21.08;100.00;100610.25;5182932;28;20045;-69
2023/09/17 03:06:05;;;;;;;6.70;4.07;;;20.70;99.90;;;21.07;100.00;100619.13;5165506;28;20046;-69
2023/09/17 03:08:41;;;;;;;5.78;3.72;;;20.60;99.90;;;21.06;100.00;100617.31;5186285;28;20419;-69
2023/09/17 03:11:17;;;;;;;5.88;4.00;;;20.60;99.90;;;21.07;100.00;100619.13;5167824;28;20048;-68
2023/09/17 03:13:53;;;;;;;7.03;4.00;;;20.60;99.90;;;21.06;100.00;100612.03;5163616;28;20050;-68
2023/09/17 03:16:26;;;;;;;5.35;3.70;;;20.60;99.90;;;21.05;100.00;100620.88;5183321;28;20053;-68
2023/09/17 03:18:58;;;;;;;6.10;4.43;;;20.60;99.90;;;21.05;100.00;100607.63;5184499;28;20037;-70
2023/09/17 03:21:30;;;;;;;8.25;5.57;;;20.60;99.90;;;20.97;100.00;100607.72;5186083;28;20054;-71
2023/09/17 03:24:03;;;;;;;7.63;4.50;;;20.60;99.90;;;20.97;100.00;100613.03;5150692;28;20066;-68
2023/09/17 03:26:38;;;;;;;7.05;4.75;;;20.60;99.90;;;20.97;100.00;100610.38;5183245;28;20135;-69
2023/09/17 03:29:12;;;;;;;7.82;5.03;;;20.60;99.90;;;20.98;100.00;100609.47;5182214;28;20042;-68
2023/09/17 03:31:48;;;;;;;;;;;20.60;99.90;;;20.95;100.00;100608.66;5183929;28;20392;-71
2023/09/17 03:34:20;;;;;;;6.65;4.70;;;20.60;99.90;;;20.95;100.00;100609.53;5201822;28;20007;-68
2023/09/17 03:36:53;;;;;;;6.43;4.20;;;20.50;99.90;;;20.95;100.00;100611.28;5183211;28;20463;-68
2023/09/17 03:39:25;;;;;;;6.78;4.07;;;20.60;99.90;;;20.96;100.00;100605.97;5184717;28;20104;-69
2023/09/17 03:41:58;;;;;;;6.07;3.97;;;20.50;99.90;;;20.96;100.00;100599.78;5186092;28;20125;-69
2023/09/17 03:44:30;;;;;;;8.10;4.57;;;20.60;99.90;;;20.94;100.00;100598.94;5185502;28;20112;-69
2023/09/17 03:47:05;;;;;;;6.78;3.95;;;20.60;99.90;;;20.91;100.00;100601.59;5166538;28;20052;-69
2023/09/17 03:49:37;;;;;;;7.53;5.00;;;20.50;99.90;;;20.90;100.00;100602.50;5190482;28;20041;-70
2023/09/17 03:52:10;;;;;;;6.57;4.10;;;20.50;99.90;;;20.86;100.00;100599.00;5188649;28;20045;-68
2023/09/17 03:54:43;;;;;;;6.95;4.32;;;20.50;99.90;;;20.82;100.00;100592.88;5183768;28;20038;-70
2023/09/17 03:57:15;;;;;;;8.55;4.85;;;20.50;99.90;;;20.81;100.00;100596.41;5156801;28;20053;-67
2023/09/17 03:59:47;;;;;;;6.45;4.40;;;20.50;99.90;;;20.83;100.00;100599.03;5182830;28;20136;-68
2023/09/17 04:02:21;;;;;;;7.40;4.20;;;20.40;99.90;;;20.84;100.00;100606.09;5182066;28;20131;-69
2023/09/17 04:04:53;;;;;;;6.55;4.68;;;20.40;99.90;;;20.80;100.00;100596.41;5181529;28;20057;-69
2023/09/17 04:07:27;;;;;;;7.97;4.95;;;20.40;99.90;;;20.77;100.00;100599.97;5168137;28;20507;-70
2023/09/17 04:09:59;;;;;;;7.22;4.72;;;20.40;99.90;;;20.75;100.00;100596.47;5191021;28;20798;-68
2023/09/17 04:12:32;;;;;;;9.25;5.45;;;20.40;99.90;;;20.74;100.00;100600.03;5180464;28;20052;-69
2023/09/17 04:15:08;;;;;;;7.30;4.38;;;20.40;99.90;;;20.74;100.00;100592.06;5179746;28;20065;-69
2023/09/17 04:17:42;;;;;;;7.95;4.47;;;20.40;99.90;;;20.74;100.00;100594.72;5174784;28;20373;-69
2023/09/17 04:20:18;;;;;;;6.80;4.47;;;20.40;99.90;;;20.76;100.00;100598.22;5184412;28;20069;-69
2023/09/17 04:22:52;;;;;;;6.18;3.83;;;20.40;99.90;;;20.78;100.00;100601.72;5174803;28;20097;-69
2023/09/17 04:25:25;;;;;;;6.45;4.15;;;20.40;99.90;;;20.79;100.00;100602.59;5178921;28;20080;-70
2023/09/17 04:27:59;;;;;;;5.55;3.78;;;20.40;99.90;;;20.78;100.00;100601.72;5179147;28;20507;-69
2023/09/17 04:30:33;;;;;;;5.63;3.80;;;20.40;99.90;;;20.79;100.00;100597.31;5171894;28;20053;-69
2023/09/17 04:33:07;;;;;;;6.85;4.30;;;20.40;99.90;;;20.78;100.00;100607.03;5173909;28;20030;-68
2023/09/17 04:35:39;;;;;;;6.30;4.10;;;20.40;99.90;;;20.78;100.00;100607.03;5180317;28;20092;-69
2023/09/17 04:38:12;;;;;;;6.45;3.63;;;20.40;99.90;;;20.78;100.00;100606.16;5191596;28;20076;-68
2023/09/17 04:40:45;;;;;;;5.25;4.00;;;20.40;99.90;;;20.76;100.00;100614.13;5162230;28;20046;-69
2023/09/17 04:43:20;;;;;;;6.20;4.20;;;20.40;99.90;;;20.76;100.00;100610.59;5181007;28;20569;-68
2023/09/17 04:45:52;;;;;;;6.20;4.43;;;20.40;99.90;;;20.74;100.00;100621.22;5162199;28;20045;-68
2023/09/17 04:48:34;;;;;;;7.20;4.43;;;20.30;99.90;;;20.70;100.00;100622.13;5182324;28;20046;-70
2023/09/17 04:51:07;;;;;;;7.57;4.50;;;20.30;99.90;;;20.71;100.00;100625.66;5169225;28;20516;-69
2023/09/17 04:53:39;;;;;;;5.45;3.63;;;20.30;99.90;;;20.72;100.00;100619.44;5175273;28;20084;-69
2023/09/17 04:56:11;;;;;;;5.78;3.72;;;20.30;99.90;;;20.71;100.00;100621.22;5180713;28;20054;-69
2023/09/17 04:58:43;;;;;;;7.47;4.70;;;20.30;99.90;;;20.69;100.00;100612.44;5179266;28;20129;-68
2023/09/17 05:01:16;;;;;;;6.32;4.35;;;20.30;99.90;;;20.65;100.00;100621.28;5180779;28;20052;-68
2023/09/17 05:03:52;;;;;;;8.70;4.43;;;20.30;99.90;;;20.61;100.00;100621.34;5185569;28;20067;-68
2023/09/17 05:06:24;;;;;;;6.63;4.30;;;20.30;99.90;;;20.57;100.00;100629.31;5186491;28;20132;-69
2023/09/17 05:08:57;;;;;;;7.75;4.47;;;20.20;99.90;;;20.51;100.00;100629.34;5170460;28;20047;-70
2023/09/17 05:11:29;;;;;;;6.60;4.35;;;20.20;99.90;;;20.52;100.00;100624.94;5180752;28;20056;-71
2023/09/17 05:14:02;;;;;;;6.50;4.30;;;20.20;99.90;;;20.56;100.00;100626.66;5179908;28;20061;-69
2023/09/17 05:16:36;;;;;;;6.70;4.38;;;20.20;99.90;;;20.55;100.00;100624.91;5165149;28;20064;-69
2023/09/17 05:19:09;;;;;;;6.45;4.03;;;20.20;99.90;;;20.57;100.00;100628.44;5163792;28;20097;-70
2023/09/17 05:21:42;;;;;;;5.20;3.65;;;20.20;99.90;;;20.56;100.00;100626.66;5180174;28;20129;-69
2023/09/17 05:24:14;;;;;;;6.30;4.03;;;20.20;99.90;;;20.54;100.00;100632.00;5173270;28;20415;-69
2023/09/17 05:26:47;;;;;;;6.10;3.90;;;20.20;99.90;;;20.55;100.00;100635.50;5177639;28;20045;-69
2023/09/17 05:29:19;;;;;;;7.13;4.00;;;20.10;99.90;;;20.54;100.00;100633.75;5175600;28;20077;-71
2023/09/17 05:31:52;;;;;;;5.47;3.80;;;20.20;99.90;;;20.54;100.00;100642.59;5186081;28;20047;-68
2023/09/17 05:34:26;;;;;;;6.32;3.80;;;20.20;99.90;;;20.54;100.00;100642.59;5180587;28;20046;-68
2023/09/17 05:36:58;;;;;;;5.90;3.63;;;20.20;99.90;;;20.53;100.00;100642.56;5178216;28;20052;-69
2023/09/17 05:39:31;;;;;;;5.05;3.20;;;20.20;99.90;;;20.53;100.00;100639.91;5182660;28;20081;-69
2023/09/17 05:42:03;;;;;;;6.20;3.97;;;20.10;99.90;;;20.51;100.00;100653.19;5172571;28;20066;-69
2023/09/17 05:44:36;;;;;;;5.95;3.60;;;20.10;99.90;;;20.49;100.00;100648.81;5164085;28;20149;-69
2023/09/17 05:47:08;;;;;;;5.82;3.40;;;20.10;99.90;;;20.47;100.00;100653.22;5179823;28;20038;-69
2023/09/17 05:49:43;;;;;;;5.05;3.40;;;20.10;99.90;;;20.42;100.00;100653.22;5181166;28;20042;-69
2023/09/17 05:52:16;;;;;;;;;;;20.10;99.90;;;20.39;100.00;100653.25;5180099;28;20077;-69
2023/09/17 05:54:48;;;;;;;5.80;3.55;;;20.00;99.90;;;20.37;100.00;100662.09;5185998;28;19957;-69
2023/09/17 05:57:20;;;;;;;4.93;3.28;;;20.00;99.90;;;20.30;100.00;100662.13;5181114;28;20112;-70
2023/09/17 05:59:53;;;;;;;5.70;3.53;;;19.90;99.90;;;20.28;100.00;100668.34;5178827;28;20062;-69
2023/09/17 06:02:26;;;;;;;5.80;3.67;;;19.90;99.90;;;20.25;100.00;100671.88;5172951;28;20044;-70
2023/09/17 06:04:59;;;;;;;5.80;3.67;;;19.90;99.90;;;20.24;100.00;100672.78;5182527;28;20045;-70
2023/09/17 06:07:31;;;;;;;6.15;3.45;;;19.90;99.90;;;20.25;100.00;100674.53;5193190;28;20042;-69
2023/09/17 06:10:05;;;;;;;4.75;3.45;;;19.90;99.90;;;20.30;100.00;100682.44;5166467;28;20038;-68
2023/09/17 06:12:37;;;;;;;6.18;4.03;;;19.90;99.90;;;20.71;100.00;100668.91;5181641;28;20044;-69
2023/09/17 06:15:11;;;;;;;7.22;4.63;;;20.10;99.90;;;21.78;100.00;100670.44;5182863;28;20049;-71
2023/09/17 06:17:45;;;;;;;7.22;4.32;;;20.80;99.90;;;22.89;100.00;100672.34;5182363;28;20050;-69
2023/09/17 06:20:19;;;;;;;7.70;4.25;;;21.80;99.90;;;23.83;100.00;100675.81;5176989;28;20050;-70
2023/09/17 06:22:52;;;;;;;7.03;4.30;;;22.60;99.90;;;24.63;100.00;100685.50;5184319;28;20042;-70
2023/09/17 06:25:26;;;;;;;6.30;4.55;;;23.40;99.90;;;24.84;100.00;100683.22;5197943;28;20512;-69
2023/09/17 06:27:59;;;;;;;6.18;4.10;;;23.90;99.90;;;25.04;100.00;100696.03;5191746;28;20046;-69
2023/09/17 06:30:31;;;;;;;7.07;4.40;;;24.10;99.90;;;25.03;100.00;100692.47;5171177;28;20050;-69
2023/09/17 06:33:04;;;;;;;8.45;4.03;;;24.30;99.90;;;24.81;100.00;100693.97;5184661;28;20053;-69
2023/09/17 06:35:40;;;;;;;7.25;4.32;;;24.20;99.90;;;24.71;100.00;100689.75;5187261;28;20037;-69
2023/09/17 06:38:12;;;;;;;6.82;4.05;;;24.10;99.90;;;24.86;100.00;100684.06;5183023;28;20049;-61
2023/09/17 06:40:45;;;;;;;7.25;4.20;;;24.20;99.90;;;25.13;100.00;100698.50;5185017;28;20073;-59
2023/09/17 06:43:17;;;;;;;6.68;4.00;;;24.40;99.90;;;25.34;100.00;100694.34;5189253;28;20045;-60
2023/09/17 06:45:49;;;;;;;5.70;3.80;;;24.70;99.90;;;25.51;100.00;100688.56;5180371;28;20052;-60
2023/09/17 06:48:21;;;;;;;6.13;4.07;;;24.80;99.90;;;25.64;100.00;100692.63;5185538;28;20061;-60
2023/09/17 06:50:55;;;;;;;5.95;4.00;;;25.00;99.90;;;25.75;100.00;100690.53;5178150;28;20504;-60
2023/09/17 06:53:27;;;;;;;5.60;3.90;;;25.10;99.90;;;25.94;100.00;100680.19;5184491;28;20041;-60
2023/09/17 06:56:00;;;;;;;5.53;3.88;;;25.30;99.90;;;26.19;100.00;100680.31;5182293;28;20060;-60
2023/09/17 06:58:32;;;;;;;5.43;3.95;;;25.40;99.90;;;26.44;100.00;100693.78;5184541;28;20073;-60
2023/09/17 07:01:05;;;;;;;5.93;3.70;;;25.60;99.90;;;26.56;100.00;100692.53;5179989;28;20065;-60
2023/09/17 07:03:38;;;;;;;6.30;3.85;;;25.80;99.90;;;26.70;100.00;100677.75;5182393;28;20111;-60
2023/09/17 07:06:11;;;;;;;7.05;3.85;;;25.90;99.90;;;26.90;100.00;100687.78;5181757;28;20143;-63
2023/09/17 07:08:43;;;;;;;5.57;3.70;;;26.10;99.90;;;27.02;100.00;100694.53;5179265;28;20051;-60
2023/09/17 07:11:15;;;;;;;6.75;4.05;;;26.20;99.90;;;27.22;100.00;100685.81;5180410;28;20450;-60
2023/09/17 07:13:47;;;;;;;5.85;3.90;;;26.40;99.90;;;27.35;100.00;100691.59;5176328;28;20415;-60
2023/09/17 07:16:20;;;;;;;5.13;3.88;;;26.50;99.90;;;27.26;100.00;100693.69;5184223;28;20557;-60
2023/09/17 07:18:52;;;;;;;7.05;4.07;;;26.50;99.90;;;27.22;100.00;100692.03;5179340;28;20104;-60
2023/09/17 07:21:26;;;;;;;5.97;3.80;;;26.50;99.90;;;27.28;100.00;100686.47;5186436;28;20056;-60
2023/09/17 07:23:58;;;;;;;7.20;4.07;;;26.60;99.90;;;27.33;100.00;100689.00;5184035;28;20038;-60
2023/09/17 07:26:30;;;;;;;6.80;3.83;;;26.60;99.90;;;27.41;100.00;100686.91;5187491;28;20520;-60
2023/09/17 07:29:03;;;;;;;5.53;3.63;;;26.70;99.90;;;27.50;100.00;100691.03;5196336;28;20042;-61
2023/09/17 07:31:35;;;;;;;5.05;3.47;;;26.80;99.90;;;27.62;100.00;100684.38;5178498;28;20152;-60
2023/09/17 07:34:07;;;;;;;4.57;3.33;;;26.90;99.90;;;27.80;100.00;100694.41;5181481;28;20056;-61
2023/09/17 07:36:41;;;;;;;6.38;3.45;;;27.00;99.90;;;27.84;98.42;100688.91;5184950;28;20054;-60
2023/09/17 07:39:13;;;;;;;5.22;3.28;;;27.00;99.90;;;27.99;99.01;100697.25;5182415;28;20046;-61
2023/09/17 07:41:45;;;;;;;5.20;3.33;;;27.20;99.90;;;28.19;98.46;100696.47;5180020;28;20061;-60
2023/09/17 07:44:17;;;;;;;5.18;3.17;;;27.30;99.90;;;28.26;97.24;100708.69;5180350;28;20046;-60
2023/09/17 07:46:49;;;;;;;5.72;3.47;;;27.40;99.90;;;28.30;96.54;100697.81;5184231;28;20061;-60
2023/09/17 07:49:27;;;;;;;5.00;3.13;;;27.50;99.90;;;28.32;95.93;100701.31;5186763;28;20045;-60
2023/09/17 07:52:00;;;;;;;6.43;3.42;;;27.50;99.90;;;28.29;95.68;100704.06;5176482;28;20456;-62
2023/09/17 07:54:39;;;;;;;4.88;3.20;;;27.50;99.90;;;28.21;94.70;100706.19;5181944;28;20088;-60
2023/09/17 07:57:12;;;;;;;5.40;2.95;;;27.40;99.90;;;28.20;94.95;100704.47;5186133;28;20038;-60
2023/09/17 07:59:45;;;;;;;4.55;3.30;;;27.40;99.90;;;28.30;95.21;100705.84;5179908;28;20052;-60
2023/09/17 08:02:17;;;;;;;4.55;3.20;;;27.40;99.90;;;28.39;94.40;100708.19;5180735;28;20436;-60
2023/09/17 08:04:49;;;;;;;4.10;2.90;;;27.40;99.90;;;28.59;95.01;100711.84;5185985;28;20050;-60
2023/09/17 08:07:22;;;;;;;4.65;3.13;;;27.50;99.90;;;29.04;93.06;100718.94;5179682;28;20526;-61
2023/09/17 08:09:54;;;;;;;6.55;3.00;;;27.70;99.90;;;29.35;90.99;100708.63;5180444;28;20061;-61
2023/09/17 08:12:26;;;;;;;5.25;2.92;;;27.90;99.50;;;29.52;90.04;100713.25;5180459;28;20049;-61
2023/09/17 08:14:59;;;;;;;4.70;2.95;;;28.00;99.10;;;29.76;89.04;100716.66;5182855;28;20036;-61
2023/09/17 08:17:31;;;;;;;3.90;2.88;;;28.10;99.10;;;30.11;88.22;100720.38;5181312;28;20411;-62
2023/09/17 08:20:04;;;;;;;5.07;2.95;;;28.20;99.00;;;30.63;86.59;100719.69;5182294;28;20053;-61
2023/09/17 08:22:38;;;;;;;4.70;2.60;;;28.50;98.70;;;31.28;84.40;100704.72;5181831;28;20076;-61
2023/09/17 08:25:11;;;;;;;3.22;2.45;;;28.80;98.30;;;31.88;82.38;100715.88;5178821;28;20050;-61
2023/09/17 08:27:44;;;;;;;5.20;2.95;;;29.10;97.80;;;32.57;79.40;100710.19;5182152;28;20038;-61
2023/09/17 08:30:16;;;;;;;4.88;2.40;;;29.60;97.00;;;33.24;76.76;100709.84;5181246;28;20041;-61
2023/09/17 08:32:48;;;;;;;2.88;2.30;;;30.20;96.10;;;33.81;75.27;100704.53;5186831;28;20050;-61
2023/09/17 08:35:20;;;;;;;5.18;2.60;;;30.70;95.20;;;34.21;73.93;100717.25;5178468;28;20042;-61
2023/09/17 08:37:55;;;;;;;4.97;2.65;;;31.20;94.30;;;34.38;73.09;100716.16;5182734;28;20041;-60
2023/09/17 08:40:28;;;;;;;3.70;2.50;;;31.60;93.20;;;34.47;72.29;100704.75;5184718;28;20456;-61
2023/09/17 08:43:01;;;;;;;3.40;2.38;;;31.80;92.30;;;34.71;72.37;100712.19;5176890;28;20046;-60
2023/09/17 08:45:33;;;;;;;4.07;2.40;;;32.10;92.00;;;34.89;71.21;100708.25;5179229;28;20063;-61
2023/09/17 08:48:06;;;;;;;3.17;2.30;;;32.30;91.00;;;34.75;71.14;100717.28;5183051;28;20413;-61
2023/09/17 08:50:39;;;;;;;2.80;2.35;;;32.30;90.50;;;34.19;72.37;100710.22;5184576;28;20071;-62
2023/09/17 08:53:18;;;;;;;2.92;2.08;;;32.10;90.20;;;33.62;73.37;100705.69;5180243;28;20046;-60
2023/09/17 08:55:55;;;;;;;2.90;2.13;;;31.80;90.20;;;33.42;74.30;100714.16;5175506;28;20381;-61
2023/09/17 08:58:38;;;;;;;3.25;2.30;;;31.60;90.40;;;33.40;74.42;100716.09;5178935;28;20135;-60
2023/09/17 09:01:14;;;;;;;2.58;1.98;;;31.70;90.30;;;33.11;74.07;100713.28;5177874;28;20500;-60
2023/09/17 09:03:46;;;;;;;2.92;2.17;;;31.60;89.70;;;32.73;74.95;100717.38;5178444;28;20045;-60
2023/09/17 09:06:21;;;;;;;3.42;2.20;;;31.40;89.30;;;32.28;76.11;100710.97;5181416;28;20435;-61
2023/09/17 09:08:56;;;;;;;2.65;1.83;;;31.10;89.70;;;31.74;77.52;100710.34;5179726;28;20434;-60
2023/09/17 09:11:29;;;;;;;3.15;2.20;;;30.80;90.00;;;31.22;79.39;100721.19;5182668;28;20046;-61
2023/09/17 09:14:02;;;;;;;3.38;2.20;;;30.30;90.50;;;30.89;80.66;100713.88;5183274;28;20100;-61
2023/09/17 09:16:36;;;;;;;2.75;1.90;;;30.00;91.00;;;30.77;82.22;100714.50;5179758;28;20056;-61
2023/09/17 09:19:09;;;;;;;2.92;2.13;;;29.90;91.60;;;30.64;82.65;100708.84;5181401;28;20042;-61
2023/09/17 09:21:41;;;;;;;2.33;2.10;;;29.70;91.80;;;30.63;82.74;100715.16;5179078;28;20050;-61
2023/09/17 09:24:14;;;;;;;4.57;2.33;;;29.70;92.00;;;30.60;82.11;100718.03;5182744;28;20053;-61
2023/09/17 09:26:46;;;;;;;3.30;2.05;;;29.60;91.80;;;30.53;82.67;100714.78;5175670;28;20499;-61
2023/09/17 09:29:18;;;;;;;2.45;2.05;;;29.60;91.90;;;30.57;83.29;100709.22;5185788;28;20042;-61
2023/09/17 09:31:51;;;;;;;2.63;2.28;;;29.60;92.30;;;30.62;82.86;100707.19;5186238;28;20049;-60
2023/09/17 09:34:26;;;;;;;2.95;2.13;;;29.60;92.20;;;30.62;82.39;100709.88;5182075;28;20041;-61
2023/09/17 09:36:58;;;;;;;2.67;2.00;;;29.60;92.00;;;30.54;82.34;100708.44;5182052;28;20419;-61
2023/09/17 09:39:32;;;;;;;3.80;2.22;;;29.50;91.80;;;30.43;82.54;100700.03;5186950;28;20045;-60
2023/09/17 09:42:05;;;;;;;;;;;29.50;91.90;;;30.42;82.82;100709.03;5182588;28;20047;-60
2023/09/17 09:44:38;;;;;;;3.45;2.25;;;29.50;92.00;;;30.44;82.01;100706.25;5188335;28;20371;-60
2023/09/17 09:47:10;;;;;;;3.00;2.08;;;29.40;91.60;;;30.45;82.32;100708.91;5185864;28;20058;-61
2023/09/17 09:49:44;;;;;;;3.22;2.17;;;29.50;91.90;;;30.53;82.63;100712.06;5187264;28;20045;-60
2023/09/17 09:52:18;;;;;;;3.08;2.28;;;29.50;92.00;;;30.58;82.76;100713.66;5193229;28;20042;-60
2023/09/17 09:54:51;;;;;;;3.60;2.17;;;29.50;92.00;;;30.67;83.22;100702.44;5182492;28;20507;-62
2023/09/17 09:57:25;;;;;;;2.85;2.00;;;29.60;92.30;;;30.77;82.94;100707.31;5183775;28;20082;-61
2023/09/17 09:59:57;;;;;;;;;;;29.70;92.20;;;30.77;82.45;100695.69;5182868;28;20042;-61
2023/09/17 10:02:29;;;;;;;3.67;1.95;;;29.70;91.90;;;30.83;82.98;100700.75;5190417;28;19927;-61
2023/09/17 10:05:04;;;;;;;3.03;2.03;;;29.70;92.10;;;30.88;82.62;100693.31;5185643;28;20049;-61
2023/09/17 10:07:36;;;;;;;3.95;1.95;;;29.80;92.00;;;30.96;81.10;100693.78;5186688;28;20427;-61
2023/09/17 10:10:12;;;;;;;3.60;2.20;;;29.90;91.60;;;30.98;80.45;100686.53;5187256;28;20046;-61
2023/09/17 10:12:44;;;;;;;3.22;2.03;;;29.90;91.20;;;30.99;80.67;100682.00;5179953;28;20054;-60
2023/09/17 10:15:17;;;;;;;2.47;1.83;;;29.90;91.10;;;30.99;79.43;100685.56;5182762;28;20040;-61
2023/09/17 10:17:50;;;;;;;3.60;2.40;;;29.90;90.70;;;30.96;78.88;100679.47;5183601;28;20061;-60
2023/09/17 10:20:24;;;;;;;2.53;2.10;;;29.90;90.40;;;30.98;79.81;100675.75;5192139;28;20045;-60
2023/09/17 10:22:58;;;;;;;2.53;2.05;;;29.90;90.70;;;31.07;79.85;100677.97;5188415;28;20049;-60
2023/09/17 10:25:32;;;;;;;2.22;2.00;;;30.00;90.90;;;31.11;79.75;100672.44;5186603;28;20045;-60
2023/09/17 10:28:07;;;;;;;2.45;1.80;;;30.00;90.60;;;31.17;79.98;100681.06;5181355;28;20065;-60
2023/09/17 10:30:40;;;;;;;2.60;1.75;;;30.10;90.80;;;31.22;78.99;100667.31;5183461;28;20589;-60
2023/09/17 10:33:13;;;;;;;2.63;2.00;;;30.10;90.30;;;31.28;80.21;100667.03;5186707;28;20050;-60
2023/09/17 10:35:48;;;;;;;2.50;1.92;;;30.20;90.80;;;31.34;79.02;100669.41;5183663;28;20049;-59